Tropical Cyclones
[Index]
Main Index Home Page Stock Weather Photos Extreme Storms Discussion Storm News and Storm Chasing Reports Tropical Cyclones / Hurricanes / Typhoons Weather Data and Links Wild Fires / Bushfires Weather Observation Techniques Weather Picture Catalogue Tornado Pictures and Reports Stock Video Footage and DVDs for sale
Season 1998-1999 Tropical Cyclone ALISON Track Map
Season 1998-1999 Summaries: [BoM-AU] [JTWC-AU] [JTWC-SIO] [JTWC-SPAC] [JTWC-SH]
<<- Previous TC | JTWC 1998-1999 Season | Next TC ->>

click for intensity scale information  Lat/long Grid: Show Hide

 Date Labels: Show Hide

Joint Typhoon Warning Centre Cyclone Data

Name: ALISON

06 Nov 1998 06:00 UTC to 12 Nov 1998 18:00 UTC

    date/time    lat    long     hPa   cat  kts
1998-11-06 06    9.9    96.3                  15          
1998-11-06 12   10.0    96.9                  20          
1998-11-06 18   10.2    97.3                  20          
1998-11-07 00   10.2    97.8                  20          
1998-11-07 06   10.2    98.5                  25          
1998-11-07 12   10.4    99.2                  25          
1998-11-07 18   10.7    99.6                  25          
1998-11-08 00   11.1    99.3                  25          
1998-11-08 06   11.5    98.9                  25          
1998-11-08 12   12.3    98.1                  35          
1998-11-08 18   12.9    97.5            2     55          
1998-11-09 00   13.3    97.0            2     55          
1998-11-09 06   13.7    96.3            2     55          
1998-11-09 12   14.2    95.6            2     70          
1998-11-09 18   14.6    94.7            2     70          
1998-11-10 00   15.0    94.0            2     70          
1998-11-10 06   15.6    93.3            2     70          
1998-11-10 12   16.3    92.8            2     70          
1998-11-10 18   16.8    92.5            2     70          
1998-11-11 00   17.2    92.3            2     65          
1998-11-11 06   17.7    92.0            2     65          
1998-11-11 12   18.3    91.8            2     65          
1998-11-11 18   19.0    91.8            2     60          
1998-11-12 00   19.1    91.5            2     65          
1998-11-12 06   19.0    91.1            2     55          
1998-11-12 12   18.9    90.8            2     55          
1998-11-12 18   18.6    90.5            1     50          
Winds are 1-min average.

Tropical cyclone tracks developed by Michael Bath using data from the Joint Typhoon Warning Centre Best Tracks and Google Maps.


[Australian Severe Weather index] [Copyright Notice] [Email Contacts] [Search This Site] [Privacy Policy]
Document: tropical_cyclone_alison.htm Updated: 18 September 2016